createdAt,value
2022-08-07T00:02:36.165Z,19.39
2022-08-07T00:04:59.331Z,19.42
2022-08-07T00:07:28.195Z,19.46
2022-08-07T00:10:26.982Z,19.29
2022-08-07T00:13:01.765Z,19.27
2022-08-07T00:15:36.148Z,19.20
2022-08-07T00:18:19.810Z,19.15
2022-08-07T00:20:52.038Z,19.12
2022-08-07T00:23:21.122Z,19.09
2022-08-07T00:25:52.415Z,18.97
2022-08-07T00:28:33.345Z,18.88
2022-08-07T00:31:04.328Z,18.82
2022-08-07T00:33:35.757Z,18.81
2022-08-07T00:36:06.554Z,18.83
2022-08-07T00:38:37.036Z,18.74
2022-08-07T00:41:10.000Z,18.63
2022-08-07T00:44:00.754Z,18.60
2022-08-07T00:46:33.186Z,18.55
2022-08-07T00:49:03.559Z,18.51
2022-08-07T00:51:57.538Z,18.50
2022-08-07T00:54:22.505Z,18.39
2022-08-07T00:56:51.420Z,18.31
2022-08-07T00:59:35.204Z,18.23
2022-08-07T01:02:14.125Z,18.12
2022-08-07T01:04:58.406Z,18.06
2022-08-07T01:07:29.642Z,18.02
2022-08-07T01:10:06.373Z,17.94
2022-08-07T01:12:53.429Z,17.94
2022-08-07T01:15:36.112Z,17.88
2022-08-07T01:18:16.864Z,17.85
2022-08-07T01:20:58.453Z,17.77
2022-08-07T01:23:38.409Z,17.68
2022-08-07T01:26:12.392Z,17.63
2022-08-07T01:28:48.769Z,17.56
2022-08-07T01:31:42.361Z,17.55
2022-08-07T01:34:14.919Z,17.52
2022-08-07T01:36:52.388Z,17.51
2022-08-07T01:39:41.101Z,17.47
2022-08-07T01:42:39.658Z,17.39
2022-08-07T01:45:22.737Z,17.35
2022-08-07T01:48:21.722Z,17.28
2022-08-07T01:50:47.990Z,17.25
2022-08-07T01:53:20.862Z,17.23
2022-08-07T01:55:57.769Z,17.17
2022-08-07T01:58:33.341Z,17.17
2022-08-07T02:01:10.272Z,17.17
2022-08-07T02:04:00.491Z,17.17
2022-08-07T02:06:32.860Z,17.14
2022-08-07T02:09:07.460Z,17.05
2022-08-07T02:12:03.482Z,16.94
2022-08-07T02:14:35.513Z,16.91
2022-08-07T02:17:06.387Z,16.92
2022-08-07T02:20:05.790Z,16.92
2022-08-07T02:22:25.937Z,16.92
2022-08-07T02:24:55.640Z,16.90
2022-08-07T02:27:25.510Z,16.92
2022-08-07T02:29:55.146Z,16.95
2022-08-07T02:32:29.934Z,16.91
2022-08-07T02:35:00.991Z,16.88
2022-08-07T02:37:34.265Z,16.88
2022-08-07T02:40:29.818Z,16.94
2022-08-07T02:42:59.195Z,16.93
2022-08-07T02:45:58.251Z,16.92
2022-08-07T02:48:17.588Z,16.92
2022-08-07T02:51:28.859Z,16.97
2022-08-07T02:54:02.794Z,17.04
2022-08-07T02:56:32.937Z,17.17
2022-08-07T02:59:06.253Z,17.27
2022-08-07T03:01:40.376Z,17.32
2022-08-07T03:04:14.113Z,17.43
2022-08-07T03:06:48.107Z,17.53
2022-08-07T03:09:42.405Z,17.64
2022-08-07T03:12:22.211Z,17.77
2022-08-07T03:15:08.145Z,17.95
2022-08-07T03:17:53.508Z,18.10
2022-08-07T03:20:25.379Z,18.28
2022-08-07T03:22:54.061Z,18.42
2022-08-07T03:25:25.800Z,18.59
2022-08-07T03:28:09.494Z,18.75
2022-08-07T03:31:13.727Z,18.97
2022-08-07T03:33:43.238Z,19.18
2022-08-07T03:36:15.249Z,19.49
2022-08-07T03:38:47.032Z,20.22
2022-08-07T03:41:17.872Z,21.62
2022-08-07T03:43:56.738Z,22.91
2022-08-07T03:46:27.328Z,24.00
2022-08-07T03:49:07.807Z,24.81
2022-08-07T03:51:47.418Z,25.43
2022-08-07T03:54:36.324Z,25.94
2022-08-07T03:58:34.023Z,26.16
2022-08-07T04:00:05.925Z,26.20
2022-08-07T04:02:47.167Z,26.71
2022-08-07T04:05:39.879Z,26.75
2022-08-07T04:08:20.930Z,26.42
2022-08-07T04:10:54.074Z,26.84
2022-08-07T04:14:33.032Z,27.29
2022-08-07T04:16:32.669Z,27.31
2022-08-07T04:19:12.829Z,27.32
2022-08-07T04:21:59.273Z,27.12
2022-08-07T04:24:42.390Z,27.00
2022-08-07T04:27:20.763Z,26.74
2022-08-07T04:30:04.478Z,27.32
2022-08-07T04:32:49.059Z,27.99
2022-08-07T04:35:35.148Z,28.17
2022-08-07T04:38:13.334Z,28.48
2022-08-07T04:40:51.681Z,28.95
2022-08-07T04:44:13.055Z,28.16
2022-08-07T04:47:04.349Z,28.33
2022-08-07T04:50:04.455Z,28.43
2022-08-07T04:52:54.609Z,28.77
2022-08-07T04:58:11.902Z,28.77
2022-08-07T04:59:09.182Z,28.73
2022-08-07T05:02:05.299Z,28.94
2022-08-07T05:05:02.872Z,29.06
2022-08-07T05:07:54.606Z,28.40
2022-08-07T05:10:32.142Z,28.91
2022-08-07T05:14:53.976Z,29.03
2022-08-07T05:16:26.131Z,29.06
2022-08-07T05:19:00.357Z,29.43
2022-08-07T05:22:00.106Z,29.29
2022-08-07T05:24:30.397Z,28.89
2022-08-07T05:27:14.530Z,29.15
2022-08-07T05:30:03.726Z,29.41
2022-08-07T05:32:32.883Z,29.98
2022-08-07T05:35:03.428Z,29.60
2022-08-07T05:37:37.773Z,28.86
2022-08-07T05:40:18.796Z,28.74
2022-08-07T05:42:56.342Z,29.27
2022-08-07T05:45:46.490Z,29.05
2022-08-07T05:48:16.876Z,29.51
2022-08-07T05:50:47.362Z,28.73
2022-08-07T05:54:12.225Z,28.28
2022-08-07T05:56:10.403Z,28.21
2022-08-07T05:58:52.488Z,27.97
2022-08-07T06:01:25.925Z,27.67
2022-08-07T06:03:58.907Z,27.04
2022-08-07T06:06:38.444Z,27.16
2022-08-07T06:09:16.554Z,27.36
2022-08-07T06:11:49.699Z,27.22
2022-08-07T06:14:28.521Z,27.20
2022-08-07T06:17:01.637Z,27.15
2022-08-07T06:19:57.836Z,26.96
2022-08-07T06:22:28.561Z,26.72
2022-08-07T06:25:10.403Z,26.74
2022-08-07T06:28:00.545Z,26.77
2022-08-07T06:30:37.488Z,26.89
2022-08-07T06:33:18.455Z,27.04
2022-08-07T06:36:12.314Z,27.18
2022-08-07T06:38:51.262Z,27.00
2022-08-07T06:42:00.658Z,26.83
2022-08-07T06:44:41.335Z,26.92
2022-08-07T06:47:15.389Z,26.94
2022-08-07T06:49:51.901Z,27.19
2022-08-07T06:52:36.021Z,27.35
2022-08-07T06:55:53.954Z,27.52
2022-08-07T06:58:17.437Z,27.55
2022-08-07T07:01:00.385Z,27.57
2022-08-07T07:03:48.708Z,27.60
2022-08-07T07:06:26.529Z,27.70
2022-08-07T07:08:58.142Z,27.81
2022-08-07T07:12:08.579Z,28.02
2022-08-07T07:14:15.816Z,28.24
2022-08-07T07:16:50.672Z,28.39
2022-08-07T07:19:55.923Z,28.53
2022-08-07T07:22:36.622Z,28.64
2022-08-07T07:26:30.758Z,28.87
2022-08-07T07:28:41.923Z,28.98
2022-08-07T07:31:17.314Z,29.04
2022-08-07T07:33:56.958Z,28.94
2022-08-07T07:36:32.410Z,29.01
2022-08-07T07:39:01.585Z,29.13
2022-08-07T07:41:30.906Z,29.14
2022-08-07T07:44:26.107Z,29.26
2022-08-07T07:47:04.336Z,29.24
2022-08-07T07:50:34.944Z,29.20
2022-08-07T07:52:32.069Z,29.37
2022-08-07T07:55:00.085Z,29.49
2022-08-07T07:57:43.989Z,29.49
2022-08-07T08:00:21.146Z,29.59
2022-08-07T08:03:08.439Z,29.62
2022-08-07T08:05:53.817Z,29.77
2022-08-07T08:08:35.448Z,29.81
2022-08-07T08:11:09.008Z,30.05
2022-08-07T08:13:54.729Z,30.21
2022-08-07T08:16:53.608Z,30.31
2022-08-07T08:20:15.982Z,30.48
2022-08-07T08:22:32.788Z,30.52
2022-08-07T08:25:42.296Z,30.55
2022-08-07T08:28:16.848Z,30.65
2022-08-07T08:30:59.536Z,30.92
2022-08-07T08:33:33.180Z,31.06
2022-08-07T08:36:02.167Z,31.11
2022-08-07T08:38:40.409Z,31.30
2022-08-07T08:41:56.921Z,31.34
2022-08-07T08:44:29.161Z,31.31
2022-08-07T08:47:13.571Z,31.56
2022-08-07T08:50:04.636Z,31.70
2022-08-07T08:53:05.515Z,31.85
2022-08-07T08:55:58.504Z,31.85
2022-08-07T08:58:56.536Z,31.89
2022-08-07T09:01:43.613Z,31.89
2022-08-07T09:04:26.064Z,32.03
2022-08-07T09:07:02.522Z,31.97
2022-08-07T09:09:36.724Z,32.15
2022-08-07T09:12:19.943Z,32.26
2022-08-07T09:16:22.203Z,32.20
2022-08-07T09:18:22.090Z,32.40
2022-08-07T09:21:06.464Z,32.37
2022-08-07T09:24:32.816Z,32.29
2022-08-07T09:26:47.951Z,32.39
2022-08-07T09:30:03.470Z,32.43
2022-08-07T09:32:58.001Z,32.45
2022-08-07T09:36:04.125Z,32.46
2022-08-07T09:38:54.967Z,32.62
2022-08-07T09:41:59.125Z,32.50
2022-08-07T09:44:58.498Z,32.56
2022-08-07T09:48:00.393Z,32.72
2022-08-07T09:50:46.935Z,32.63
2022-08-07T09:53:14.661Z,32.49
2022-08-07T09:56:05.143Z,32.76
2022-08-07T09:58:54.646Z,32.83
2022-08-07T10:01:51.739Z,32.61
2022-08-07T10:04:28.253Z,32.82
2022-08-07T10:07:31.638Z,33.00
2022-08-07T10:10:06.396Z,33.14
2022-08-07T10:13:10.966Z,32.97
2022-08-07T10:15:49.160Z,33.08
2022-08-07T10:18:56.700Z,33.10
2022-08-07T10:22:14.982Z,33.23
2022-08-07T10:24:49.811Z,33.20
2022-08-07T10:27:45.907Z,33.30
2022-08-07T10:30:25.040Z,33.38
2022-08-07T10:34:06.283Z,33.24
2022-08-07T10:36:29.721Z,33.18
2022-08-07T10:39:18.927Z,33.26
2022-08-07T10:42:21.307Z,33.40
2022-08-07T10:45:01.953Z,33.56
2022-08-07T10:47:51.624Z,33.44
2022-08-07T10:50:31.931Z,33.58
2022-08-07T10:53:10.894Z,33.73
2022-08-07T10:56:30.954Z,33.58
2022-08-07T10:59:11.076Z,33.51
2022-08-07T11:01:51.928Z,33.77
2022-08-07T11:04:40.233Z,33.56
2022-08-07T11:07:14.889Z,33.45
2022-08-07T11:10:07.589Z,33.65
2022-08-07T11:13:02.252Z,33.54
2022-08-07T11:15:34.538Z,33.65
2022-08-07T11:18:50.993Z,33.74
2022-08-07T11:21:19.456Z,33.70
2022-08-07T11:24:04.846Z,33.59
2022-08-07T11:26:50.506Z,33.73
2022-08-07T11:29:42.683Z,33.83
2022-08-07T11:32:15.514Z,33.67
2022-08-07T11:35:03.197Z,33.68
2022-08-07T11:37:38.538Z,33.62
2022-08-07T11:40:59.969Z,33.53
2022-08-07T11:43:54.690Z,33.78
2022-08-07T11:46:50.252Z,33.70
2022-08-07T11:50:18.664Z,33.72
2022-08-07T11:52:35.653Z,33.69
2022-08-07T11:55:12.994Z,33.79
2022-08-07T11:57:52.449Z,33.44
2022-08-07T12:00:53.649Z,33.63
2022-08-07T12:03:46.398Z,33.75
2022-08-07T12:06:37.879Z,33.77
2022-08-07T12:09:51.432Z,33.92
2022-08-07T12:12:22.538Z,33.95
2022-08-07T12:15:02.062Z,33.99
2022-08-07T12:17:58.548Z,33.79
2022-08-07T12:20:30.753Z,33.84
2022-08-07T12:23:15.096Z,33.96
2022-08-07T12:26:22.394Z,34.16
2022-08-07T12:29:03.925Z,34.44
2022-08-07T12:31:52.371Z,34.39
2022-08-07T12:34:25.894Z,34.74
2022-08-07T12:36:54.480Z,34.96
2022-08-07T12:39:44.434Z,34.99
2022-08-07T12:42:13.194Z,35.34
2022-08-07T12:44:42.982Z,35.44
2022-08-07T12:47:30.785Z,35.54
2022-08-07T12:50:39.081Z,35.78
2022-08-07T12:53:18.797Z,36.15
2022-08-07T12:56:10.722Z,36.20
2022-08-07T12:58:43.020Z,36.36
2022-08-07T13:01:19.674Z,36.74
2022-08-07T13:04:32.652Z,36.58
2022-08-07T13:08:11.613Z,37.24
2022-08-07T13:10:29.342Z,37.79
2022-08-07T13:13:47.823Z,37.79
2022-08-07T13:16:11.121Z,37.29
2022-08-07T13:19:21.672Z,37.70
2022-08-07T13:22:12.677Z,37.96
2022-08-07T13:24:56.778Z,37.66
2022-08-07T13:27:33.247Z,37.62
2022-08-07T13:30:18.857Z,37.63
2022-08-07T13:32:53.056Z,37.67
2022-08-07T13:36:00.867Z,37.56
2022-08-07T13:38:45.593Z,38.01
2022-08-07T13:41:42.183Z,37.83
2022-08-07T13:44:13.025Z,37.83
2022-08-07T13:46:48.853Z,37.72
2022-08-07T13:50:35.354Z,38.08
2022-08-07T13:52:31.696Z,37.84
2022-08-07T13:54:58.130Z,37.90
2022-08-07T13:57:26.968Z,37.88
2022-08-07T14:00:10.350Z,37.55
2022-08-07T14:02:55.654Z,37.67
2022-08-07T14:05:23.733Z,37.84
2022-08-07T14:07:59.604Z,37.78
2022-08-07T14:10:41.743Z,38.03
2022-08-07T14:13:33.605Z,37.27
2022-08-07T14:16:06.341Z,37.09
2022-08-07T14:18:49.931Z,37.42
2022-08-07T14:22:02.345Z,37.60
2022-08-07T14:24:37.553Z,37.96
2022-08-07T14:28:09.538Z,38.31
2022-08-07T14:30:05.441Z,38.49
2022-08-07T14:32:43.173Z,37.82
2022-08-07T14:35:16.257Z,37.44
2022-08-07T14:38:06.053Z,37.93
2022-08-07T14:40:36.017Z,37.76
2022-08-07T14:43:57.357Z,37.74
2022-08-07T14:45:57.782Z,37.62
2022-08-07T14:48:33.080Z,37.72
2022-08-07T14:51:15.837Z,38.04
2022-08-07T14:54:03.649Z,37.74
2022-08-07T14:56:33.463Z,37.15
2022-08-07T14:59:13.853Z,37.31
2022-08-07T15:01:58.407Z,37.43
2022-08-07T15:04:28.812Z,37.66
2022-08-07T15:06:57.040Z,37.44
2022-08-07T15:10:00.001Z,37.24
2022-08-07T15:12:26.002Z,36.67
2022-08-07T15:15:17.350Z,36.44
2022-08-07T15:17:57.159Z,36.60
2022-08-07T15:20:33.865Z,36.61
2022-08-07T15:25:12.827Z,36.42
2022-08-07T15:26:20.860Z,36.19
2022-08-07T15:28:56.638Z,36.09
2022-08-07T15:32:01.217Z,36.39
2022-08-07T15:34:17.171Z,36.38
2022-08-07T15:37:03.706Z,36.25
2022-08-07T15:39:56.272Z,35.55
2022-08-07T15:42:43.933Z,35.54
2022-08-07T15:45:14.734Z,35.38
2022-08-07T15:53:51.621Z,35.34
2022-08-07T15:56:35.278Z,35.07
2022-08-07T15:59:16.327Z,34.97
2022-08-07T16:02:02.582Z,34.85
2022-08-07T16:04:32.162Z,34.41
2022-08-07T16:07:00.990Z,34.42
2022-08-07T16:09:42.336Z,34.23
2022-08-07T16:12:25.068Z,34.39
2022-08-07T16:15:03.306Z,34.25
2022-08-07T16:18:49.569Z,34.11
2022-08-07T16:22:01.226Z,34.13
2022-08-07T16:24:35.547Z,34.09
2022-08-07T16:27:18.097Z,33.82
2022-08-07T16:30:30.616Z,33.48
2022-08-07T16:34:02.195Z,32.71
2022-08-07T16:36:30.963Z,32.09
2022-08-07T16:39:49.358Z,31.77
2022-08-07T16:42:52.506Z,31.16
2022-08-07T16:46:33.209Z,30.61
2022-08-07T16:49:10.607Z,30.22
2022-08-07T16:52:11.358Z,29.49
2022-08-07T16:55:08.447Z,29.12
2022-08-07T16:58:02.727Z,28.95
2022-08-07T17:00:41.943Z,28.15
2022-08-07T17:03:17.190Z,27.78
2022-08-07T17:06:28.566Z,27.43
2022-08-07T17:09:09.722Z,26.98
2022-08-07T17:12:04.961Z,26.76
2022-08-07T17:15:03.540Z,26.40
2022-08-07T17:17:46.144Z,26.22
2022-08-07T17:20:37.886Z,26.00
2022-08-07T17:23:14.218Z,25.76
2022-08-07T17:26:23.298Z,25.61
2022-08-07T17:28:58.563Z,25.72
2022-08-07T17:31:43.904Z,25.71
2022-08-07T17:34:33.468Z,25.73
2022-08-07T17:37:14.417Z,25.73
2022-08-07T17:40:07.874Z,25.74
2022-08-07T17:42:58.631Z,25.89
2022-08-07T17:45:34.168Z,26.04
2022-08-07T17:48:11.296Z,26.16
2022-08-07T17:50:55.803Z,26.24
2022-08-07T17:53:59.786Z,26.20
2022-08-07T17:56:49.407Z,26.19
2022-08-07T17:59:21.305Z,26.08
2022-08-07T18:02:12.881Z,26.15
2022-08-07T18:04:48.924Z,26.11
2022-08-07T18:07:34.102Z,26.10
2022-08-07T18:10:32.624Z,26.11
2022-08-07T18:13:01.278Z,26.05
2022-08-07T18:15:32.591Z,26.03
2022-08-07T18:18:47.598Z,25.98
2022-08-07T18:21:42.064Z,25.91
2022-08-07T18:24:33.005Z,25.85
2022-08-07T18:27:07.764Z,25.75
2022-08-07T18:30:32.371Z,25.73
2022-08-07T18:33:39.075Z,25.63
2022-08-07T18:36:58.196Z,25.54
2022-08-07T18:40:06.916Z,25.49
2022-08-07T18:43:15.118Z,25.35
2022-08-07T18:46:24.580Z,25.21
2022-08-07T18:50:32.340Z,25.09
2022-08-07T18:52:37.823Z,24.86
2022-08-07T18:55:43.118Z,24.60
2022-08-07T18:58:34.117Z,24.19
2022-08-07T19:01:05.868Z,24.08
2022-08-07T19:03:49.755Z,23.92
2022-08-07T19:06:33.947Z,23.69
2022-08-07T19:09:57.897Z,23.42
2022-08-07T19:12:53.491Z,23.11
2022-08-07T19:16:05.878Z,23.05
2022-08-07T19:18:35.513Z,23.13
2022-08-07T19:21:47.707Z,23.38
2022-08-07T19:24:43.587Z,23.51
2022-08-07T19:28:29.951Z,23.34
2022-08-07T19:31:05.679Z,23.07
2022-08-07T19:32:59.671Z,22.80
2022-08-07T19:35:33.445Z,22.70
2022-08-07T19:38:04.095Z,22.58
2022-08-07T19:40:49.295Z,22.43
2022-08-07T19:43:43.956Z,22.30
2022-08-07T19:46:19.584Z,22.17
2022-08-07T19:48:53.800Z,22.05
2022-08-07T19:51:51.188Z,21.97
2022-08-07T19:54:34.344Z,21.62
2022-08-07T19:58:02.925Z,21.60
2022-08-07T20:00:02.293Z,21.42
2022-08-07T20:02:53.447Z,21.27
2022-08-07T20:05:28.123Z,21.20
2022-08-07T20:08:04.766Z,21.13
2022-08-07T20:10:52.329Z,21.17
2022-08-07T20:13:31.852Z,21.08
2022-08-07T20:16:01.502Z,21.05
2022-08-07T20:18:32.927Z,21.01
2022-08-07T20:21:21.144Z,20.96
2022-08-07T20:24:03.813Z,20.84
2022-08-07T20:26:44.748Z,20.76
2022-08-07T20:29:17.032Z,20.73
2022-08-07T20:32:03.939Z,20.64
2022-08-07T20:34:50.336Z,20.60
2022-08-07T20:37:23.706Z,20.52
2022-08-07T20:40:03.884Z,20.42
2022-08-07T20:42:36.550Z,20.44
2022-08-07T20:45:32.592Z,20.45
2022-08-07T20:47:57.955Z,20.42
2022-08-07T20:50:28.098Z,20.37
2022-08-07T20:52:55.759Z,20.20
2022-08-07T20:55:24.471Z,20.20
2022-08-07T20:58:02.742Z,20.14
2022-08-07T21:00:44.395Z,20.11
2022-08-07T21:03:14.614Z,20.13
2022-08-07T21:05:55.904Z,20.07
2022-08-07T21:08:38.056Z,19.97
2022-08-07T21:11:12.368Z,19.84
2022-08-07T21:14:32.101Z,19.80
2022-08-07T21:18:03.234Z,19.75
2022-08-07T21:20:00.631Z,19.66
2022-08-07T21:22:54.500Z,19.68
2022-08-07T21:25:42.632Z,19.68
2022-08-07T21:28:47.528Z,19.71
2022-08-07T21:31:31.289Z,19.64
2022-08-07T21:34:21.808Z,19.67
2022-08-07T21:37:09.117Z,19.61
2022-08-07T21:40:01.224Z,19.57
2022-08-07T21:42:55.078Z,19.44
2022-08-07T21:46:08.017Z,19.42
2022-08-07T21:49:00.850Z,19.41
2022-08-07T21:51:28.549Z,19.38
2022-08-07T21:54:22.056Z,19.34
2022-08-07T21:57:10.960Z,19.36
2022-08-07T22:00:06.130Z,19.26
2022-08-07T22:02:49.962Z,19.22
2022-08-07T22:05:45.389Z,19.23
2022-08-07T22:08:11.535Z,19.20
2022-08-07T22:10:42.365Z,19.21
2022-08-07T22:13:13.805Z,19.14
2022-08-07T22:16:43.091Z,19.01
2022-08-07T22:19:23.598Z,19.08
2022-08-07T22:22:28.509Z,19.04
2022-08-07T22:25:07.631Z,18.97
2022-08-07T22:28:29.849Z,18.92
2022-08-07T22:30:52.982Z,18.97
2022-08-07T22:33:50.978Z,18.88
2022-08-07T22:36:18.181Z,18.83
2022-08-07T22:38:52.084Z,18.84
2022-08-07T22:42:03.045Z,18.78
2022-08-07T22:44:23.498Z,18.71
2022-08-07T22:47:09.399Z,18.76
2022-08-07T22:50:04.548Z,18.72
2022-08-07T22:52:50.870Z,18.59
2022-08-07T22:55:43.933Z,18.66
2022-08-07T22:58:18.254Z,18.57
2022-08-07T23:01:05.397Z,18.54
2022-08-07T23:03:58.219Z,18.46
2022-08-07T23:07:33.600Z,18.39
2022-08-07T23:10:37.261Z,18.34
2022-08-07T23:13:48.371Z,18.33
2022-08-07T23:16:55.069Z,18.29
2022-08-07T23:19:51.368Z,18.28
2022-08-07T23:22:39.189Z,18.26
2022-08-07T23:25:13.691Z,18.19
2022-08-07T23:28:21.467Z,18.20
2022-08-07T23:31:11.616Z,18.19
2022-08-07T23:34:36.602Z,18.19
2022-08-07T23:36:43.072Z,18.10
2022-08-07T23:39:48.301Z,18.09
2022-08-07T23:43:02.359Z,17.96
2022-08-07T23:46:03.302Z,17.86
2022-08-07T23:48:41.002Z,17.91
2022-08-07T23:52:59.792Z,17.84
2022-08-07T23:54:19.631Z,17.82
2022-08-07T23:56:59.756Z,17.77
